Time;durP1;ratioP1;P1;durP2;ratioP2;P2;SDS_P1;SDS_P2;PMS_P1;PMS_P2;Temp;Humidity;BMP_temperature;BMP_pressure;BME280_temperature;BME280_humidity;BME280_pressure;Samples;Min_cycle;Max_cycle;Signal;HPM_P1;HPM_P2
2022/06/11 00:00:15;;;;;;;5.82;5.43;;;;;;;16.80;86.05;101611.44;5028292;28;20661;-82
2022/06/11 00:02:40;;;;;;;5.43;5.13;;;;;;;16.78;85.75;101608.81;5024783;28;20029;-82
2022/06/11 00:05:06;;;;;;;6.45;5.95;;;;;;;16.78;86.05;101610.59;5027058;28;20021;-82
2022/06/11 00:07:33;;;;;;;6.45;5.93;;;;;;;16.77;86.79;101615.03;5028124;28;20048;-82
2022/06/11 00:09:58;;;;;;;7.78;5.95;;;;;;;16.77;86.54;101615.03;5021102;28;20107;-82
2022/06/11 00:12:26;;;;;;;6.70;6.10;;;;;;;16.76;86.17;101609.81;5021016;28;20067;-82
2022/06/11 00:14:51;;;;;;;6.20;5.70;;;;;;;16.75;86.55;101608.06;5020066;28;20119;-82
2022/06/11 00:17:18;;;;;;;5.90;5.50;;;;;;;16.75;86.44;101608.91;5018680;28;20045;-82
2022/06/11 00:19:44;;;;;;;6.22;5.57;;;;;;;16.73;86.79;101611.59;5019014;28;20025;-82
2022/06/11 00:22:11;;;;;;;6.32;5.72;;;;;;;16.73;86.98;101608.97;5018585;28;20021;-82
2022/06/11 00:24:38;;;;;;;6.45;6.03;;;;;;;16.72;86.39;101607.22;5018373;28;20537;-82
2022/06/11 00:27:04;;;;;;;6.18;5.60;;;;;;;16.72;86.46;101607.22;5018242;28;20386;-82
2022/06/11 00:29:33;;;;;;;6.10;5.70;;;;;;;16.72;86.15;101604.59;5019597;28;20112;-82
2022/06/11 00:31:58;;;;;;;6.05;5.55;;;;;;;16.73;86.77;101603.69;5020910;28;20021;-82
2022/06/11 00:34:24;;;;;;;6.22;5.82;;;;;;;16.72;86.74;101604.59;5019863;28;20021;-82
2022/06/11 00:36:50;;;;;;;5.93;5.38;;;;;;;16.71;85.94;101602.00;5018958;28;20513;-82
2022/06/11 00:39:19;;;;;;;5.20;4.93;;;;;;;16.70;86.86;101595.88;5019310;28;20017;-82
2022/06/11 00:41:48;;;;;;;5.75;5.35;;;;;;;16.71;85.93;101596.72;5039274;28;20029;-82
2022/06/11 00:44:15;;;;;;;5.88;5.57;;;;;;;16.71;85.80;101602.88;5023344;28;20119;-81
2022/06/11 00:46:47;;;;;;;6.10;5.75;;;;;;;16.72;85.68;101593.19;5023086;28;20029;-82
2022/06/11 00:49:39;;;;;;;5.75;5.30;;;;;;;16.72;85.77;101593.19;5038455;28;20482;-82
2022/06/11 00:52:31;;;;;;;5.18;4.82;;;;;;;16.72;85.33;101593.19;5022025;28;20498;-82
2022/06/11 00:55:24;;;;;;;5.70;5.30;;;;;;;16.72;85.31;101601.94;5037801;28;20028;-82
2022/06/11 00:58:04;;;;;;;5.90;5.38;;;;;;;16.75;84.32;101615.97;5022816;28;20025;-80
2022/06/11 01:00:34;;;;;;;5.45;5.25;;;;;;;16.73;84.27;101614.25;5022601;28;20529;-80
2022/06/11 01:03:01;;;;;;;5.30;4.85;;;;;;;16.71;83.60;101616.06;5021759;28;20101;-82
2022/06/11 01:05:30;;;;;;;5.43;5.05;;;;;;;16.72;82.69;101603.75;5021360;28;20021;-82
2022/06/11 01:08:20;;;;;;;5.05;4.57;;;;;;;16.71;82.09;101608.16;5021180;28;20125;-82
2022/06/11 01:11:00;;;;;;;5.75;4.80;;;;;;;16.72;81.50;101599.31;5037693;28;20032;-82
2022/06/11 01:13:39;;;;;;;4.97;4.20;;;;;;;16.77;81.36;101593.03;5021043;28;20108;-82
2022/06/11 01:16:16;;;;;;;4.55;4.15;;;;;;;16.81;82.03;101592.06;5020983;28;20112;-82
2022/06/11 01:19:00;;;;;;;4.85;4.40;;;;;;;16.80;81.87;101585.06;5021205;28;20102;-82
2022/06/11 01:21:54;;;;;;;5.70;4.20;;;;;;;16.82;82.04;101585.88;5038138;28;20021;-82
2022/06/11 01:24:58;;;;;;;4.78;4.47;;;;;;;16.84;82.04;101578.78;5021908;28;20021;-82
2022/06/11 01:27:39;;;;;;;7.00;5.50;;;;;;;16.84;82.08;101578.78;5037708;28;20025;-82
2022/06/11 01:30:08;;;;;;;5.20;4.20;;;;;;;16.84;82.71;101571.72;5020947;28;20082;-82
2022/06/11 01:33:10;;;;;;;4.03;3.72;;;;;;;16.83;82.64;101575.28;5020796;28;20178;-82
2022/06/11 01:36:02;;;;;;;4.40;4.10;;;;;;;16.83;82.75;101563.88;5019841;28;20079;-82
2022/06/11 01:38:37;;;;;;;3.75;3.45;;;;;;;16.84;82.65;101562.97;5020398;28;20079;-82
2022/06/11 01:41:02;;;;;;;;;;;;;;;16.83;82.70;101563.88;5021443;28;20025;-80
2022/06/11 01:43:34;;;;;;;4.10;3.80;;;;;;;16.83;82.26;101555.94;5037202;28;19962;-80
2022/06/11 01:46:05;;;;;;;5.70;4.22;;;;;;;16.81;82.52;101565.66;5037281;28;20054;-82
2022/06/11 01:48:30;;;;;;;4.70;4.13;;;;;;;16.81;82.62;101561.28;5020919;28;20513;-82
2022/06/11 01:51:34;;;;;;;4.25;3.80;;;;;;;16.82;82.05;101551.56;5037334;28;20036;-82
2022/06/11 01:54:03;;;;;;;4.18;3.70;;;;;;;16.82;82.13;101551.56;5039944;28;20040;-82
2022/06/11 01:56:54;;;;;;;3.97;3.58;;;;;;;16.82;81.85;101546.28;5038157;28;20033;-82
2022/06/11 02:00:02;;;;;;;4.28;3.90;;;;;;;16.82;82.46;101546.28;5025740;28;20119;-82
2022/06/11 02:02:52;;;;;;;4.53;3.78;;;;;;;16.81;82.64;101549.84;5024368;28;20033;-82
2022/06/11 02:05:22;;;;;;;3.70;3.50;;;;;;;16.82;82.53;101541.03;5038005;28;20036;-82
2022/06/11 02:08:02;;;;;;;4.00;3.58;;;;;;;16.80;82.82;101541.06;5036178;28;20020;-82
2022/06/11 02:10:38;;;;;;;4.32;4.00;;;;;;;16.81;81.55;101540.16;5036328;28;20025;-82
2022/06/11 02:13:06;;;;;;;4.55;4.15;;;;;;;16.80;82.11;101541.06;5019689;28;20406;-82
2022/06/11 02:15:35;;;;;;;5.15;3.90;;;;;;;16.80;81.55;101540.22;5035957;28;20437;-82
2022/06/11 02:18:06;;;;;;;6.18;3.80;;;;;;;16.82;81.55;101538.38;5036258;28;20548;-82
2022/06/11 02:20:39;;;;;;;4.00;3.75;;;;;;;16.81;81.67;101539.28;5020227;28;20021;-82
2022/06/11 02:23:13;;;;;;;7.45;3.90;;;;;;;16.80;82.47;101537.56;5019858;28;20016;-82
2022/06/11 02:25:50;;;;;;;4.93;3.70;;;;;;;16.83;81.46;101542.75;5036254;28;20020;-82
2022/06/11 02:28:22;;;;;;;4.93;3.65;;;;;;;16.82;81.72;101535.75;5018916;28;20521;-82
2022/06/11 02:30:48;;;;;;;4.60;4.00;;;;;;;16.82;81.15;101541.03;5019601;28;20108;-82
2022/06/11 02:33:16;;;;;;;3.92;3.55;;;;;;;16.82;81.39;101541.88;5019537;28;20581;-80
2022/06/11 02:35:50;;;;;;;3.60;3.30;;;;;;;16.83;81.63;101548.03;5019487;28;20029;-80
2022/06/11 02:38:21;;;;;;;5.32;3.80;;;;;;;16.83;81.57;101545.41;5035877;28;20030;-80
2022/06/11 02:40:57;;;;;;;4.57;3.28;;;;;;;16.83;81.77;101537.47;5019287;28;20545;-80
2022/06/11 02:43:22;;;;;;;3.63;3.25;;;;;;;16.83;82.56;101542.75;5019946;28;20512;-80
2022/06/11 02:45:48;;;;;;;4.03;3.67;;;;;;;16.83;82.74;101538.34;5020326;28;20017;-80
2022/06/11 02:48:14;;;;;;;3.65;3.08;;;;;;;16.82;82.19;101541.88;5020370;28;20535;-80
2022/06/11 02:50:40;;;;;;;3.35;3.05;;;;;;;16.83;83.01;101548.03;5019237;28;20036;-80
2022/06/11 02:53:09;;;;;;;5.10;3.80;;;;;;;16.84;82.69;101544.50;5019478;28;20101;-80
2022/06/11 02:55:36;;;;;;;4.00;3.40;;;;;;;16.84;81.19;101540.06;5018905;28;20028;-81
2022/06/11 02:58:02;;;;;;;4.15;3.33;;;;;;;16.82;81.28;101535.75;5035654;28;20164;-80
2022/06/11 03:00:32;;;;;;;3.67;3.35;;;;;;;16.81;81.59;101534.00;5019737;28;20078;-80
2022/06/11 03:03:01;;;;;;;3.70;3.40;;;;;;;16.80;81.11;101527.03;5018556;28;20398;-80
2022/06/11 03:05:29;;;;;;;4.20;3.90;;;;;;;16.80;80.89;101537.56;5019057;28;20112;-80
2022/06/11 03:07:56;;;;;;;3.50;3.20;;;;;;;16.81;81.93;101544.56;5019084;28;20025;-79
2022/06/11 03:10:23;;;;;;;4.30;3.45;;;;;;;16.83;80.53;101540.13;5036086;28;20025;-80
2022/06/11 03:12:49;;;;;;;3.70;3.45;;;;;;;16.83;80.21;101542.75;5018997;28;20025;-80
2022/06/11 03:15:15;;;;;;;4.60;3.38;;;;;;;16.83;80.75;101538.34;5018478;28;20027;-79
2022/06/11 03:17:41;;;;;;;4.95;3.58;;;;;;;16.85;80.51;101540.91;5018469;28;20504;-80
2022/06/11 03:20:08;;;;;;;4.60;3.63;;;;;;;16.83;81.06;101537.47;5018876;28;20060;-80
2022/06/11 03:22:34;;;;;;;4.80;3.80;;;;;;;16.85;81.11;101546.19;5018586;28;20497;-81
2022/06/11 03:24:59;;;;;;;3.47;3.17;;;;;;;16.84;80.80;101547.13;5018452;28;20025;-79
2022/06/11 03:27:25;;;;;;;3.85;3.58;;;;;;;16.82;81.33;101543.66;5034946;28;20108;-80
2022/06/11 03:29:51;;;;;;;3.92;3.03;;;;;;;16.81;82.03;101539.28;5018665;28;20020;-80
2022/06/11 03:32:17;;;;;;;3.80;3.50;;;;;;;16.81;81.67;101539.28;5018714;28;20434;-80
2022/06/11 03:34:42;;;;;;;3.72;3.30;;;;;;;16.80;81.47;101537.56;5018238;28;20036;-79
2022/06/11 03:37:08;;;;;;;3.83;3.53;;;;;;;16.81;81.84;101544.56;5018391;28;20406;-79
2022/06/11 03:39:34;;;;;;;3.42;3.22;;;;;;;16.80;81.53;101546.34;5018520;28;20108;-82
2022/06/11 03:41:59;;;;;;;4.20;3.80;;;;;;;16.79;82.29;101541.13;5018334;28;20021;-81
2022/06/11 03:44:24;;;;;;;3.50;3.30;;;;;;;16.77;81.41;101545.56;5018625;28;20375;-82
2022/06/11 03:46:50;;;;;;;3.92;3.63;;;;;;;16.76;81.24;101542.06;5018653;28;20067;-82
2022/06/11 03:49:17;;;;;;;4.60;3.97;;;;;;;16.75;81.38;101542.13;5018595;28;20082;-82
2022/06/11 03:51:43;;;;;;;3.45;3.20;;;;;;;16.75;81.64;101547.41;5018567;28;20039;-84
2022/06/11 03:54:09;;;;;;;4.32;3.30;;;;;;;16.73;81.52;101543.00;5018100;28;20052;-83
2022/06/11 03:56:35;;;;;;;3.95;3.65;;;;;;;16.71;81.91;101550.13;5018188;28;20057;-84
2022/06/11 03:59:00;;;;;;;6.28;3.50;;;;;;;16.69;80.97;101546.66;5034551;28;20044;-84
2022/06/11 04:01:28;;;;;;;4.03;3.63;;;;;;;16.69;81.87;101541.38;5018271;28;20033;-84
2022/06/11 04:04:00;;;;;;;3.90;3.55;;;;;;;16.70;81.61;101543.13;5018177;28;20087;-84
2022/06/11 04:06:30;;;;;;;3.55;3.35;;;;;;;16.71;81.60;101550.13;5018469;28;20028;-83
2022/06/11 04:08:56;;;;;;;3.75;3.40;;;;;;;16.71;81.37;101551.88;5020936;28;20032;-84
2022/06/11 04:11:21;;;;;;;5.10;3.15;;;;;;;16.71;81.29;101549.25;5018484;28;20474;-82
2022/06/11 04:13:47;;;;;;;3.70;3.40;;;;;;;16.70;81.38;101553.66;5018940;28;20078;-81
2022/06/11 04:16:27;;;;;;;3.88;3.55;;;;;;;16.68;81.89;101555.47;5021232;28;20029;-81
2022/06/11 04:18:53;;;;;;;6.15;3.72;;;;;;;16.66;81.63;101559.03;5022374;28;20540;-81
2022/06/11 04:21:20;;;;;;;5.80;3.63;;;;;;;16.65;81.89;101560.84;5022334;28;20025;-81
2022/06/11 04:23:48;;;;;;;3.95;3.65;;;;;;;16.65;81.42;101566.09;5022709;28;20033;-81
2022/06/11 04:26:17;;;;;;;3.85;3.55;;;;;;;16.63;81.41;101562.63;5022211;28;20036;-81
2022/06/11 04:28:43;;;;;;;3.88;3.58;;;;;;;16.64;81.34;101563.53;5022173;28;20025;-80
2022/06/11 04:31:09;;;;;;;5.07;3.20;;;;;;;16.65;81.66;101563.47;5038435;28;20192;-80
2022/06/11 04:33:35;;;;;;;3.67;3.38;;;;;;;16.64;81.70;101563.53;5021898;28;20413;-80
2022/06/11 04:36:01;;;;;;;5.22;3.80;;;;;;;16.64;81.61;101568.78;5021634;28;20025;-80
2022/06/11 04:38:27;;;;;;;4.38;3.50;;;;;;;16.63;81.74;101565.28;5022204;28;20036;-80
2022/06/11 04:40:53;;;;;;;5.47;4.25;;;;;;;16.63;81.67;101572.34;5021659;28;20052;-80
2022/06/11 04:43:19;;;;;;;3.88;3.58;;;;;;;16.63;82.21;101570.53;5021942;28;20079;-80
2022/06/11 04:45:46;;;;;;;3.97;3.67;;;;;;;16.64;81.79;101571.44;5021649;28;20427;-81
2022/06/11 04:48:11;;;;;;;5.78;4.57;;;;;;;16.64;81.72;101567.00;5021572;28;20037;-80
2022/06/11 04:50:37;;;;;;;5.45;4.60;;;;;;;16.66;81.39;101566.97;5037773;28;20393;-80
2022/06/11 04:53:03;;;;;;;6.95;5.40;;;;;;;16.68;81.17;101563.38;5021485;28;20092;-80
2022/06/11 04:55:29;;;;;;;6.03;4.18;;;;;;;16.69;81.66;101561.63;5021168;28;20487;-80
2022/06/11 04:57:55;;;;;;;5.28;4.82;;;;;;;16.72;80.88;101569.44;5021216;28;20486;-80
2022/06/11 05:00:23;;;;;;;5.47;4.93;;;;;;;16.74;81.45;101564.97;5021124;28;20025;-80
2022/06/11 05:02:49;;;;;;;4.90;4.50;;;;;;;16.75;81.51;101566.72;5021388;28;20053;-82
2022/06/11 05:05:15;;;;;;;6.07;5.40;;;;;;;16.76;80.94;101572.88;5021372;28;20048;-80
2022/06/11 05:07:42;;;;;;;5.75;5.15;;;;;;;16.80;80.78;101577.16;5038016;28;20090;-80
2022/06/11 05:10:09;;;;;;;5.85;5.28;;;;;;;16.83;80.56;101569.16;5021429;28;20029;-80
2022/06/11 05:12:35;;;;;;;7.18;5.45;;;;;;;16.85;81.04;101568.19;5021074;28;20033;-80
2022/06/11 05:15:00;;;;;;;5.93;4.75;;;;;;;16.90;80.56;101576.84;5021415;28;20040;-80
2022/06/11 05:17:26;;;;;;;5.63;5.07;;;;;;;16.95;80.68;101578.53;5021228;28;20116;-81
2022/06/11 05:19:51;;;;;;;7.85;5.05;;;;;;;16.96;80.08;101573.19;5021647;28;20118;-80
2022/06/11 05:22:16;;;;;;;7.78;5.47;;;;;;;17.01;80.23;101578.31;5021792;28;20029;-80
2022/06/11 05:24:42;;;;;;;6.32;5.60;;;;;;;17.02;79.71;101586.19;5020982;28;20017;-80
2022/06/11 05:27:14;;;;;;;6.70;6.10;;;;;;;17.05;79.68;101586.09;5037677;28;20082;-80
2022/06/11 05:29:52;;;;;;;6.10;5.55;;;;;;;17.10;79.35;101587.75;5037476;28;20024;-81
2022/06/11 05:32:21;;;;;;;6.95;5.55;;;;;;;17.13;79.97;101588.53;5021521;28;20021;-80
2022/06/11 05:34:47;;;;;;;6.38;5.30;;;;;;;17.15;79.85;101581.44;5021655;28;20021;-80
2022/06/11 05:37:13;;;;;;;7.13;5.45;;;;;;;17.19;79.49;101587.47;5021290;28;20409;-81
2022/06/11 05:39:40;;;;;;;6.55;5.78;;;;;;;17.20;79.18;101587.41;5038451;28;20363;-81
2022/06/11 05:42:06;;;;;;;7.32;6.63;;;;;;;17.24;78.79;101586.41;5038064;28;20024;-80
2022/06/11 05:44:31;;;;;;;7.40;6.70;;;;;;;17.26;78.90;101583.75;5038379;28;20076;-80
2022/06/11 05:46:56;;;;;;;6.80;6.07;;;;;;;17.28;79.51;101584.56;5021312;28;20020;-80
2022/06/11 05:49:26;;;;;;;9.07;6.20;;;;;;;17.32;78.70;101588.84;5037761;28;20028;-80
2022/06/11 05:51:54;;;;;;;7.70;5.75;;;;;;;17.38;78.89;101585.16;5021415;28;20032;-80
2022/06/11 05:54:22;;;;;;;9.73;6.80;;;;;;;17.43;77.70;101585.88;5020904;28;20032;-80
2022/06/11 05:56:51;;;;;;;7.93;6.97;;;;;;;17.49;78.00;101588.34;5021320;28;20025;-80
2022/06/11 05:59:20;;;;;;;8.60;6.13;;;;;;;17.55;77.74;101584.63;5021481;28;20082;-80
2022/06/11 06:01:46;;;;;;;7.88;7.18;;;;;;;17.62;77.02;101586.16;5021045;28;20203;-80
2022/06/11 06:04:11;;;;;;;10.00;6.60;;;;;;;17.64;76.88;101594.91;5021103;28;20397;-80
2022/06/11 06:06:36;;;;;;;8.77;6.95;;;;;;;17.68;77.44;101583.34;5021417;28;20394;-81
2022/06/11 06:09:03;;;;;;;7.88;7.00;;;;;;;17.69;76.94;101590.34;5021083;28;20038;-79
2022/06/11 06:11:28;;;;;;;7.82;7.00;;;;;;;17.72;77.21;101592.91;5020865;28;20067;-80
2022/06/11 06:13:56;;;;;;;8.35;7.45;;;;;;;17.71;77.35;101593.81;5021321;28;20030;-82
2022/06/11 06:16:23;;;;;;;11.68;6.75;;;;;;;17.68;77.70;101590.38;5020857;28;20557;-81
2022/06/11 06:18:49;;;;;;;6.72;6.03;;;;;;;17.66;77.77;101598.38;5020680;28;20025;-81
2022/06/11 06:21:17;;;;;;;7.80;6.70;;;;;;;17.66;78.52;101602.78;5020761;28;20029;-80
2022/06/11 06:23:42;;;;;;;9.98;7.72;;;;;;;17.61;77.79;101605.56;5020353;28;20505;-80
2022/06/11 06:26:08;;;;;;;8.38;7.32;;;;;;;17.65;77.41;101593.97;5022329;28;20033;-78
2022/06/11 06:28:34;;;;;;;8.98;6.85;;;;;;;17.66;77.40;101594.88;5036566;28;20433;-79
2022/06/11 06:31:01;;;;;;;8.75;6.72;;;;;;;17.68;77.58;101600.94;5020107;28;20121;-79
2022/06/11 06:33:27;;;;;;;7.45;5.95;;;;;;;17.67;78.09;101594.81;5036132;28;20033;-78
2022/06/11 06:35:53;;;;;;;8.10;6.82;;;;;;;17.71;77.92;101600.84;5019551;28;20025;-79
2022/06/11 06:38:18;;;;;;;6.85;5.22;;;;;;;17.77;77.71;101597.16;5018777;28;20029;-79
2022/06/11 06:40:44;;;;;;;5.95;4.40;;;;;;;17.86;75.81;101600.38;5019535;28;20025;-78
2022/06/11 06:43:09;;;;;;;4.55;4.05;;;;;;;17.98;75.73;101600.91;5019365;28;20074;-78
2022/06/11 06:45:35;;;;;;;4.95;3.88;;;;;;;18.10;75.21;101602.28;5020000;28;20025;-80
2022/06/11 06:48:02;;;;;;;5.15;4.18;;;;;;;18.16;75.25;101596.78;5019778;28;20033;-79
2022/06/11 06:50:28;;;;;;;5.13;3.53;;;;;;;18.21;74.22;101608.06;5020060;28;20413;-78
2022/06/11 06:52:53;;;;;;;6.68;3.92;;;;;;;18.26;74.04;101602.66;5020465;28;20029;-80
2022/06/11 06:55:18;;;;;;;5.55;3.70;;;;;;;18.29;74.31;101613.97;5020525;28;20040;-80
2022/06/11 06:57:44;;;;;;;7.20;5.03;;;;;;;18.29;73.30;101610.47;5021126;28;20059;-79
2022/06/11 07:00:11;;;;;;;6.20;4.70;;;;;;;18.32;74.31;101619.16;5037906;28;20025;-80
2022/06/11 07:02:36;;;;;;;5.22;4.82;;;;;;;18.33;74.26;101614.75;5020663;28;20031;-78
2022/06/11 07:05:02;;;;;;;7.50;5.45;;;;;;;18.33;74.05;101610.31;5037192;28;20380;-79
2022/06/11 07:07:27;;;;;;;6.20;5.40;;;;;;;18.34;74.14;101606.75;5021051;28;20031;-79
2022/06/11 07:09:54;;;;;;;8.35;6.07;;;;;;;18.37;73.75;101613.72;5020374;28;20547;-78
2022/06/11 07:12:20;;;;;;;6.30;5.80;;;;;;;18.35;73.67;101613.78;5019839;28;20364;-80
2022/06/11 07:14:45;;;;;;;6.95;5.68;;;;;;;18.34;73.73;101613.84;5018966;28;20029;-81
2022/06/11 07:17:11;;;;;;;8.38;5.75;;;;;;;18.30;74.36;101620.13;5018907;28;20035;-81
2022/06/11 07:19:47;;;;;;;9.52;6.88;;;;;;;18.27;74.16;101613.19;5018909;28;20017;-78
2022/06/11 07:22:21;;;;;;;6.03;5.40;;;;;;;18.26;74.69;101618.53;5019195;28;20497;-79
2022/06/11 07:24:46;;;;;;;6.32;5.10;;;;;;;18.24;74.35;101621.19;5019211;28;20025;-79
2022/06/11 07:27:17;;;;;;;6.43;5.57;;;;;;;18.26;74.26;101629.09;5019213;28;20036;-79
2022/06/11 07:30:00;;;;;;;6.70;5.47;;;;;;;18.26;73.08;101618.53;5020700;28;20024;-79
2022/06/11 07:32:27;;;;;;;8.00;4.97;;;;;;;18.31;73.08;101621.84;5018813;28;20029;-79
2022/06/11 07:34:53;;;;;;;8.55;5.20;;;;;;;18.36;72.05;101609.34;5019131;28;20025;-78
2022/06/11 07:37:19;;;;;;;6.75;5.00;;;;;;;18.32;72.85;101611.22;5018323;28;20028;-79
2022/06/11 07:39:45;;;;;;;8.20;4.90;;;;;;;18.34;71.85;101612.03;5019206;28;20021;-78
2022/06/11 07:42:10;;;;;;;5.38;4.57;;;;;;;18.37;71.62;101604.00;5018693;28;20021;-79
2022/06/11 07:44:37;;;;;;;4.57;4.18;;;;;;;18.30;72.30;101610.41;5018824;28;20025;-78
2022/06/11 07:47:03;;;;;;;6.32;5.07;;;;;;;18.31;71.73;101605.97;5018403;28;20112;-79
2022/06/11 07:49:29;;;;;;;5.90;4.80;;;;;;;18.26;72.68;101614.09;5018733;28;20111;-78
2022/06/11 07:51:54;;;;;;;5.90;4.60;;;;;;;18.24;72.87;101600.03;5018872;28;20056;-79
2022/06/11 07:54:20;;;;;;;10.20;4.82;;;;;;;18.29;72.18;101608.69;5018709;28;20021;-78
2022/06/11 07:56:45;;;;;;;7.70;6.35;;;;;;;18.36;71.99;101606.69;5018584;28;20028;-78
2022/06/11 07:59:11;;;;;;;5.88;5.30;;;;;;;18.48;71.16;101608.06;5018275;28;20376;-79
2022/06/11 08:01:36;;;;;;;7.30;6.65;;;;;;;18.53;70.61;101630.78;5017108;28;20433;-79
2022/06/11 08:04:02;;;;;;;10.20;7.13;;;;;;;18.55;69.82;101614.84;5019876;28;20119;-78
2022/06/11 08:06:27;;;;;;;8.48;7.63;;;;;;;18.55;69.16;101605.13;5018895;28;20044;-81
2022/06/11 08:08:53;;;;;;;9.95;9.05;;;;;;;18.57;69.17;101619.19;5017313;28;20045;-80
2022/06/11 08:11:18;;;;;;;9.57;8.70;;;;;;;18.53;69.22;101622.00;5034895;28;20027;-83
2022/06/11 08:13:46;;;;;;;8.73;7.82;;;;;;;18.57;68.37;101613.03;5018080;28;20079;-82
2022/06/11 08:16:12;;;;;;;8.85;7.95;;;;;;;18.57;68.54;101623.63;5018451;28;20025;-81
2022/06/11 08:18:38;;;;;;;9.95;7.53;;;;;;;18.60;68.17;101618.22;5018372;28;20036;-81
2022/06/11 08:21:04;;;;;;;8.88;6.53;;;;;;;18.70;65.24;101616.94;5018481;28;20410;-81
2022/06/11 08:23:30;;;;;;;8.32;6.20;;;;;;;18.74;66.32;101609.78;5018453;28;20108;-80
2022/06/11 08:25:56;;;;;;;5.38;4.88;;;;;;;18.86;66.04;101613.75;5022366;28;20082;-80
2022/06/11 08:28:22;;;;;;;5.90;4.68;;;;;;;18.97;64.49;101610.75;5018630;28;20029;-81
2022/06/11 08:30:48;;;;;;;6.32;4.40;;;;;;;19.08;64.43;101619.16;5034850;28;20109;-81
2022/06/11 08:33:13;;;;;;;4.82;3.65;;;;;;;19.17;64.63;101604.69;5018234;28;20032;-79
2022/06/11 08:35:39;;;;;;;3.50;3.30;;;;;;;19.25;65.32;101607.91;5018148;28;20552;-79
2022/06/11 08:38:05;;;;;;;4.05;3.55;;;;;;;19.29;65.45;101619.25;5017779;28;20029;-80
2022/06/11 08:40:41;;;;;;;4.82;4.00;;;;;;;19.19;64.54;101632.00;5018942;28;20082;-79
2022/06/11 08:43:16;;;;;;;4.32;3.90;;;;;;;19.09;64.14;101621.75;5018500;28;20021;-79
2022/06/11 08:45:54;;;;;;;4.38;3.97;;;;;;;18.90;64.24;101620.72;5035227;28;20082;-79
2022/06/11 08:48:37;;;;;;;6.03;4.20;;;;;;;18.80;66.09;101619.28;5018282;28;20079;-78
2022/06/11 08:51:28;;;;;;;4.30;3.53;;;;;;;18.83;63.33;101613.84;5034593;28;20307;-79
2022/06/11 08:53:58;;;;;;;2.97;2.65;;;;;;;18.85;62.61;101612.88;5017907;28;20482;-78
2022/06/11 08:56:29;;;;;;;2.60;2.40;;;;;;;18.88;62.52;101617.25;5018301;28;20499;-78
2022/06/11 08:59:00;;;;;;;4.10;2.45;;;;;;;18.97;61.47;101619.56;5017765;28;20399;-78
2022/06/11 09:01:31;;;;;;;4.72;2.55;;;;;;;19.03;61.11;101613.16;5036053;28;20684;-78
2022/06/11 09:04:26;;;;;;;5.15;2.75;;;;;;;19.18;59.63;101611.72;5021567;28;20033;-79
2022/06/11 09:07:23;;;;;;;2.78;2.22;;;;;;;19.34;59.96;101604.91;5151590;22;20069;-83
2022/06/11 09:10:13;;;;;;;4.60;2.50;;;;;;;19.48;60.71;101616.78;5077378;28;20488;-83
2022/06/11 09:12:41;;;;;;;6.47;2.50;;;;;;;19.56;60.59;101619.97;5077292;28;20024;-83
2022/06/11 09:15:13;;;;;;;3.03;2.50;;;;;;;19.59;61.00;101618.09;5076980;28;20024;-83
2022/06/11 09:18:06;;;;;;;2.53;2.38;;;;;;;19.59;58.90;101635.75;5076956;28;20503;-83
2022/06/11 09:20:47;;;;;;;3.22;2.38;;;;;;;19.50;56.50;101614.94;5077001;28;20510;-82
2022/06/11 09:23:28;;;;;;;4.72;2.30;;;;;;;19.31;58.26;101620.94;5077126;28;20035;-83
2022/06/11 09:26:00;;;;;;;2.65;1.95;;;;;;;19.23;57.87;101617.72;5076711;28;20020;-83
2022/06/11 09:28:59;;;;;;;2.10;2.00;;;;;;;19.19;58.52;101627.56;5060046;28;20048;-83
2022/06/11 09:31:40;;;;;;;1.77;1.55;;;;;;;19.18;55.77;101624.97;5076988;28;20024;-82
2022/06/11 09:34:24;;;;;;;3.35;1.92;;;;;;;19.14;55.97;101628.66;5060530;28;20442;-84
2022/06/11 09:37:02;;;;;;;3.20;1.63;;;;;;;19.19;56.52;101626.69;5077194;28;20537;-83
2022/06/11 09:39:42;;;;;;;2.40;2.20;;;;;;;19.23;55.86;101629.16;5076681;28;20118;-85
2022/06/11 09:42:19;;;;;;;4.63;2.05;;;;;;;19.27;53.92;101616.69;5059965;28;20036;-83
2022/06/11 09:44:44;;;;;;;3.20;1.77;;;;;;;19.30;53.03;101634.25;5076476;28;20020;-82
2022/06/11 09:47:12;;;;;;;2.38;1.63;;;;;;;19.35;52.98;101625.19;5093405;28;20165;-83
2022/06/11 09:49:43;;;;;;;3.70;1.67;;;;;;;19.40;53.80;101633.84;5059665;28;20024;-84
2022/06/11 09:52:36;;;;;;;1.58;1.48;;;;;;;19.46;53.16;101635.38;5093258;28;20120;-83
2022/06/11 09:55:21;;;;;;;3.05;1.83;;;;;;;19.57;53.36;101632.31;5076133;28;20020;-83
2022/06/11 09:58:12;;;;;;;1.95;1.65;;;;;;;19.54;53.54;101625.34;5060073;28;20024;-84
2022/06/11 10:00:45;;;;;;;2.10;1.60;;;;;;;19.59;51.10;101619.84;5076287;28;20042;-82
2022/06/11 10:03:41;;;;;;;6.10;1.80;;;;;;;19.63;52.55;101623.25;5059475;28;20052;-82
2022/06/11 10:06:26;;;;;;;4.15;1.60;;;;;;;19.73;51.69;101622.84;5092086;28;20669;-85
2022/06/11 10:08:59;;;;;;;1.85;1.40;;;;;;;19.80;53.13;101638.50;5059310;28;20020;-82
2022/06/11 10:11:44;;;;;;;2.15;1.85;;;;;;;19.84;51.75;101632.19;5059138;28;20063;-82
2022/06/11 10:14:33;;;;;;;5.05;2.45;;;;;;;19.88;49.40;101636.44;5074950;28;20020;-84
2022/06/11 10:17:10;;;;;;;2.60;1.67;;;;;;;19.88;50.63;101644.41;5061729;28;20177;-82
2022/06/11 10:20:00;;;;;;;2.47;1.90;;;;;;;19.91;51.67;101650.41;5075882;28;20670;-82
2022/06/11 10:22:30;;;;;;;3.88;1.50;;;;;;;19.92;50.21;101638.88;5059278;28;20028;-83
2022/06/11 10:25:31;;;;;;;3.00;1.50;;;;;;;19.99;47.08;101660.72;5058924;28;20494;-84
2022/06/11 10:28:06;;;;;;;5.13;1.85;;;;;;;20.01;47.84;101642.09;5079179;28;20035;-82
2022/06/11 10:30:39;;;;;;;2.28;2.03;;;;;;;20.04;48.84;101664.06;5059142;28;20357;-83
2022/06/11 10:33:13;;;;;;;4.53;1.88;;;;;;;20.08;48.62;101644.44;5075820;28;20024;-82
2022/06/11 10:35:43;;;;;;;3.25;1.38;;;;;;;20.10;49.70;101658.47;5058661;28;20405;-83
2022/06/11 10:38:12;;;;;;;4.18;1.80;;;;;;;20.12;48.51;101654.91;5075494;28;20028;-83
2022/06/11 10:40:41;;;;;;;4.57;2.05;;;;;;;20.13;48.91;101640.72;5092189;28;20115;-83
2022/06/11 10:43:24;;;;;;;4.47;1.75;;;;;;;20.19;49.95;101645.78;5058829;28;20028;-82
2022/06/11 10:45:50;;;;;;;4.43;1.98;;;;;;;20.26;47.42;101652.56;5058690;28;20438;-83
2022/06/11 10:48:21;;;;;;;4.75;1.73;;;;;;;20.33;49.41;101645.19;5058727;28;20027;-83
2022/06/11 10:50:47;;;;;;;6.60;2.47;;;;;;;20.41;49.92;101649.25;5058553;28;20104;-83
2022/06/11 10:53:28;;;;;;;3.95;1.83;;;;;;;20.54;49.92;101656.69;5058813;28;20055;-83
2022/06/11 10:56:20;;;;;;;4.60;1.95;;;;;;;20.65;50.25;101667.69;5058581;28;20382;-83
2022/06/11 10:59:00;;;;;;;5.93;1.85;;;;;;;20.66;50.22;101661.47;5075205;28;20028;-83
2022/06/11 11:01:40;;;;;;;5.13;1.92;;;;;;;20.60;52.13;101656.41;5058315;28;20067;-84
2022/06/11 11:04:24;;;;;;;5.47;1.85;;;;;;;20.58;50.69;101664.44;5058463;28;20111;-83
2022/06/11 11:07:10;;;;;;;8.10;2.20;;;;;;;20.63;50.24;101664.25;5093056;28;20427;-84
2022/06/11 11:09:35;;;;;;;5.45;2.03;;;;;;;20.75;48.99;101671.72;5058114;28;20393;-82
2022/06/11 11:12:06;;;;;;;7.95;2.00;;;;;;;20.85;47.70;101666.00;5075074;28;20023;-82
2022/06/11 11:14:40;;;;;;;4.03;1.95;;;;;;;20.95;47.82;101677.94;5058472;28;20085;-82
2022/06/11 11:17:14;;;;;;;3.47;1.98;;;;;;;21.04;47.82;101661.59;5053597;28;20025;-83
2022/06/11 11:19:43;;;;;;;4.47;1.90;;;;;;;21.12;49.92;101661.25;5038032;28;20086;-83
2022/06/11 11:22:15;;;;;;;5.28;1.95;;;;;;;21.29;49.74;101671.09;5054570;28;20024;-82
2022/06/11 11:24:45;;;;;;;6.32;2.05;;;;;;;21.41;47.79;101670.53;5053890;28;20016;-82
2022/06/11 11:27:13;;;;;;;6.75;2.35;;;;;;;21.35;47.94;101670.84;5054496;28;20027;-82
2022/06/11 11:29:49;;;;;;;2.67;2.35;;;;;;;21.26;49.78;101671.25;5054591;28;20028;-82
2022/06/11 11:32:36;;;;;;;6.20;2.30;;;;;;;21.25;50.13;101669.53;5054459;28;20031;-85
2022/06/11 11:35:29;;;;;;;4.93;1.67;;;;;;;21.27;50.16;101675.66;5069667;28;20094;-82
2022/06/11 11:38:03;;;;;;;8.85;2.30;;;;;;;21.27;50.77;101665.00;5067619;28;20124;-83
2022/06/11 11:40:28;;;;;;;;;;;;;;;21.34;50.82;101668.25;5038052;28;20035;-83
2022/06/11 11:42:57;;;;;;;3.03;1.88;;;;;;;21.49;51.17;101677.28;5071963;28;19912;-82
2022/06/11 11:45:25;;;;;;;5.65;2.30;;;;;;;21.56;50.16;101678.78;5037399;28;20020;-83